Time;durP1;ratioP1;P1;durP2;ratioP2;P2;SDS_P1;SDS_P2;PMS_P1;PMS_P2;Temp;Humidity;BMP_temperature;BMP_pressure;BME280_temperature;BME280_humidity;BME280_pressure;Samples;Min_cycle;Max_cycle;Signal;HPM_P1;HPM_P2
2024/01/30 00:00:35;;;;;;;5.22;3.38;;;;;;;0.47;49.51;96906.09;5054365;28;20040;-74
2024/01/30 00:03:00;;;;;;;4.63;3.42;;;;;;;0.46;49.77;96909.91;5067004;28;20111;-75
2024/01/30 00:05:26;;;;;;;6.30;4.07;;;;;;;0.51;49.71;96906.22;5052104;28;20055;-74
2024/01/30 00:07:51;;;;;;;9.70;4.72;;;;;;;0.44;49.75;96912.13;5055519;28;20036;-75
2024/01/30 00:10:16;;;;;;;5.88;3.58;;;;;;;0.46;49.92;96912.63;5047792;28;20025;-75
2024/01/30 00:12:42;;;;;;;7.18;4.47;;;;;;;0.39;50.12;96914.22;5049806;28;20123;-75
2024/01/30 00:15:09;;;;;;;8.00;4.57;;;;;;;0.39;50.16;96917.72;5066366;28;20388;-75
2024/01/30 00:17:38;;;;;;;8.30;4.10;;;;;;;0.31;50.28;96912.34;5053472;28;20538;-74
2024/01/30 00:20:05;;;;;;;7.25;4.30;;;;;;;0.25;50.52;96900.91;5058454;28;20486;-75
2024/01/30 00:22:31;;;;;;;9.25;4.75;;;;;;;0.27;50.67;96920.31;5047635;28;20568;-75
2024/01/30 00:24:57;;;;;;;9.43;5.22;;;;;;;0.23;50.75;96914.75;5054459;28;20055;-75
2024/01/30 00:27:22;;;;;;;6.28;3.53;;;;;;;0.21;50.75;96911.56;5048797;28;20487;-74
2024/01/30 00:29:48;;;;;;;5.85;4.35;;;;;;;0.25;50.55;96919.84;5044322;28;20025;-74
2024/01/30 00:32:13;;;;;;;6.28;3.80;;;;;;;0.20;50.74;96909.19;5048519;28;20028;-75
2024/01/30 00:34:38;;;;;;;8.13;4.13;;;;;;;0.16;51.02;96917.13;5047899;28;20025;-74
2024/01/30 00:37:04;;;;;;;7.82;4.88;;;;;;;0.14;50.86;96907.78;5041235;28;20044;-74
2024/01/30 00:39:29;;;;;;;7.05;4.30;;;;;;;0.05;50.87;96896.94;5053369;28;20059;-75
2024/01/30 00:41:55;;;;;;;5.78;3.97;;;;;;;0.13;51.04;96915.09;5055552;28;20112;-74
2024/01/30 00:44:20;;;;;;;7.85;4.47;;;;;;;0.10;51.31;96910.31;5065099;28;20054;-74
2024/01/30 00:46:46;;;;;;;8.70;4.55;;;;;;;0.07;51.17;96907.47;5059853;28;20020;-75
2024/01/30 00:49:11;;;;;;;7.03;4.35;;;;;;;-0.01;51.36;96901.72;5045704;28;20529;-75
2024/01/30 00:51:36;;;;;;;8.98;4.60;;;;;;;-0.04;51.43;96901.59;5044103;28;20453;-74
2024/01/30 00:54:02;;;;;;;8.75;5.15;;;;;;;0.02;51.31;96916.53;5045890;28;20029;-74
2024/01/30 00:56:28;;;;;;;9.25;5.45;;;;;;;0.02;51.37;96910.34;5045050;28;20123;-73
2024/01/30 00:58:53;;;;;;;10.65;5.13;;;;;;;0.03;51.47;96912.72;5054368;28;20094;-74
2024/01/30 01:01:19;;;;;;;9.93;5.60;;;;;;;0.01;51.67;96900.66;5054194;28;20051;-74
2024/01/30 01:03:44;;;;;;;7.95;5.10;;;;;;;-0.02;51.67;96904.78;5065510;28;20035;-73
2024/01/30 01:06:10;;;;;;;12.52;5.68;;;;;;;-0.02;51.53;96907.47;5053453;28;20517;-74
2024/01/30 01:08:36;;;;;;;9.25;5.60;;;;;;;-0.03;51.49;96908.59;5044198;28;20029;-74
2024/01/30 01:11:01;;;;;;;9.30;4.95;;;;;;;-0.03;51.44;96909.38;5046823;28;20040;-74
2024/01/30 01:13:26;;;;;;;7.93;4.72;;;;;;;-0.06;51.54;96911.91;5044391;28;20067;-74
2024/01/30 01:15:52;;;;;;;9.38;5.30;;;;;;;0.04;51.29;96905.41;5045225;28;20029;-75
2024/01/30 01:18:17;;;;;;;7.65;4.72;;;;;;;0.00;51.16;96899.84;5056967;28;20110;-74
2024/01/30 01:20:42;;;;;;;5.93;3.72;;;;;;;0.05;50.72;96898.88;5060593;28;20442;-74
2024/01/30 01:23:08;;;;;;;4.68;3.03;;;;;;;0.10;50.47;96902.19;5055988;28;20029;-75
2024/01/30 01:25:33;;;;;;;6.75;3.38;;;;;;;0.07;50.48;96910.97;5046732;28;20049;-74
2024/01/30 01:28:01;;;;;;;6.95;3.40;;;;;;;0.05;50.17;96904.28;5046701;28;20114;-74
2024/01/30 01:30:26;;;;;;;7.22;3.42;;;;;;;0.01;50.09;96906.84;5049315;28;20479;-74
2024/01/30 01:32:55;;;;;;;6.32;2.88;;;;;;;-0.03;50.49;96901.28;5060734;28;20127;-74
2024/01/30 01:35:26;;;;;;;6.38;3.70;;;;;;;0.01;50.27;96904.13;5084925;28;20085;-74
2024/01/30 01:37:56;;;;;;;5.43;2.85;;;;;;;0.04;50.20;96908.09;5046490;28;20473;-75
2024/01/30 01:40:23;;;;;;;7.57;3.53;;;;;;;-0.03;50.09;96905.88;5045253;28;20036;-75
2024/01/30 01:42:52;;;;;;;6.13;3.30;;;;;;;-0.03;50.32;96909.38;5058509;28;20032;-74
2024/01/30 01:45:19;;;;;;;5.70;3.75;;;;;;;-0.01;50.32;96911.75;5051843;28;20064;-74
2024/01/30 01:47:47;;;;;;;5.63;3.58;;;;;;;0.01;50.17;96914.16;5061710;28;20045;-74
2024/01/30 01:50:13;;;;;;;6.65;3.55;;;;;;;0.05;50.06;96910.47;5053762;28;20134;-75
2024/01/30 01:52:40;;;;;;;7.00;3.50;;;;;;;0.03;49.84;96907.31;5064368;28;20021;-75
2024/01/30 01:55:06;;;;;;;7.75;3.30;;;;;;;0.02;50.14;96911.13;5052011;28;20072;-74
2024/01/30 01:57:33;;;;;;;5.88;2.95;;;;;;;-0.01;50.24;96912.56;5053794;28;20020;-75
2024/01/30 01:59:59;;;;;;;6.57;3.30;;;;;;;-0.03;50.42;96914.00;5062251;28;20495;-75
2024/01/30 02:02:25;;;;;;;5.57;3.50;;;;;;;0.01;50.28;96912.25;5037000;28;20067;-75
2024/01/30 02:04:51;;;;;;;5.97;3.85;;;;;;;0.03;50.39;96918.13;5064883;28;20040;-74
2024/01/30 02:07:17;;;;;;;4.97;3.33;;;;;;;-0.03;50.39;96927.53;5053556;28;20415;-75
2024/01/30 02:09:42;;;;;;;5.25;3.20;;;;;;;-0.01;50.37;96927.97;5031851;28;20029;-74
2024/01/30 02:12:09;;;;;;;5.93;3.50;;;;;;;-0.01;50.32;96920.66;5048175;28;20032;-75
2024/01/30 02:14:44;;;;;;;4.78;2.78;;;;;;;-0.04;50.67;96924.03;5048323;28;20029;-74
2024/01/30 02:17:09;;;;;;;6.85;3.67;;;;;;;-0.05;50.47;96913.53;5048779;28;20021;-74
2024/01/30 02:19:35;;;;;;;5.88;3.42;;;;;;;-0.04;50.55;96917.81;5049842;28;20021;-74
2024/01/30 02:22:00;;;;;;;4.80;3.13;;;;;;;-0.07;50.59;96913.03;5048234;28;20036;-74
2024/01/30 02:24:26;;;;;;;6.28;3.58;;;;;;;-0.05;50.67;96916.25;5059679;28;20071;-74
2024/01/30 02:26:51;;;;;;;6.07;3.42;;;;;;;0.00;50.24;96913.38;5047391;28;20044;-74
2024/01/30 02:29:16;;;;;;;5.13;3.33;;;;;;;0.06;49.93;96912.09;5052201;28;20055;-74
2024/01/30 02:31:42;;;;;;;6.03;3.58;;;;;;;0.06;50.10;96917.50;5047057;28;20039;-74
2024/01/30 02:34:07;;;;;;;6.45;3.88;;;;;;;0.01;50.21;96908.75;5066909;28;20021;-74
2024/01/30 02:36:33;;;;;;;6.10;3.53;;;;;;;-0.03;50.22;96911.28;5069640;28;20130;-75
2024/01/30 02:38:58;;;;;;;6.53;3.38;;;;;;;0.05;50.14;96912.38;5060451;28;20013;-75
2024/01/30 02:41:24;;;;;;;7.30;3.70;;;;;;;0.02;50.26;96903.03;5063872;28;20032;-75
2024/01/30 02:43:51;;;;;;;5.70;3.13;;;;;;;0.06;50.12;96912.09;5065825;28;20101;-75
2024/01/30 02:46:17;;;;;;;7.72;4.53;;;;;;;0.08;49.82;96919.88;5049273;28;20025;-74
2024/01/30 02:48:42;;;;;;;4.72;3.42;;;;;;;0.14;49.91;96913.19;5047211;28;20059;-74
2024/01/30 02:51:07;;;;;;;6.88;3.88;;;;;;;0.15;49.93;96915.56;5048485;28;20037;-74
2024/01/30 02:53:33;;;;;;;6.20;4.35;;;;;;;0.17;49.82;96912.53;5049382;28;20414;-74
2024/01/30 02:55:58;;;;;;;5.35;3.30;;;;;;;0.10;49.53;96904.91;5047103;28;20029;-74
2024/01/30 02:58:24;;;;;;;6.97;3.67;;;;;;;0.23;49.27;96911.22;5067946;28;20123;-74
2024/01/30 03:00:49;;;;;;;7.40;4.10;;;;;;;0.23;48.91;96908.53;5044781;28;20013;-74
2024/01/30 03:03:14;;;;;;;7.53;4.20;;;;;;;0.26;48.83;96910.59;5046726;28;20108;-75
2024/01/30 03:05:40;;;;;;;8.05;4.07;;;;;;;0.25;48.58;96899.00;5057212;28;20029;-75
2024/01/30 03:08:05;;;;;;;8.85;5.03;;;;;;;0.35;48.60;96903.28;5058176;28;20029;-73
2024/01/30 03:10:31;;;;;;;6.07;3.60;;;;;;;0.43;48.16;96904.34;5058077;28;20037;-74
2024/01/30 03:12:56;;;;;;;4.95;2.72;;;;;;;0.34;47.84;96896.25;5051343;28;20036;-75
2024/01/30 03:15:22;;;;;;;5.65;3.38;;;;;;;0.36;47.82;96893.25;5038972;28;20056;-75
2024/01/30 03:17:48;;;;;;;7.00;2.78;;;;;;;0.46;47.73;96899.09;5045735;28;20691;-74
2024/01/30 03:20:13;;;;;;;3.90;2.80;;;;;;;0.44;47.81;96901.31;5047347;28;20033;-74
2024/01/30 03:22:39;;;;;;;5.03;2.83;;;;;;;0.40;47.72;96900.38;5064584;28;20032;-73
2024/01/30 03:25:05;;;;;;;4.25;2.78;;;;;;;0.42;47.82;96903.56;5068255;28;20071;-76
2024/01/30 03:27:30;;;;;;;3.60;2.33;;;;;;;0.42;47.64;96897.34;5049534;28;20054;-75
2024/01/30 03:29:55;;;;;;;6.40;2.58;;;;;;;0.45;47.54;96897.47;5042206;28;20044;-74
2024/01/30 03:32:21;;;;;;;4.50;2.40;;;;;;;0.50;47.17;96896.50;5047029;28;20115;-75
2024/01/30 03:34:46;;;;;;;4.22;2.38;;;;;;;0.50;46.94;96886.47;5045733;28;20179;-75
2024/01/30 03:37:11;;;;;;;4.15;2.40;;;;;;;0.50;46.87;96886.47;5048418;28;20040;-74
2024/01/30 03:39:37;;;;;;;3.72;2.42;;;;;;;0.41;47.00;96884.94;5046464;28;20135;-74
2024/01/30 03:42:03;;;;;;;5.78;2.85;;;;;;;0.39;46.90;96887.94;5062807;28;20347;-74
2024/01/30 03:44:28;;;;;;;4.75;2.10;;;;;;;0.46;46.93;96887.44;5045672;28;20037;-73
2024/01/30 03:46:53;;;;;;;3.88;2.40;;;;;;;0.49;46.50;96882.19;5058768;28;20036;-75
2024/01/30 03:49:19;;;;;;;3.15;2.30;;;;;;;0.49;46.54;96890.31;5050383;28;20612;-75
2024/01/30 03:51:44;;;;;;;3.35;2.08;;;;;;;0.39;46.55;96881.75;5066491;28;20121;-75
2024/01/30 03:54:10;;;;;;;6.15;2.78;;;;;;;0.40;46.69;96886.03;5066564;28;20032;-73
2024/01/30 03:56:35;;;;;;;4.38;2.67;;;;;;;0.47;46.42;96873.63;5063411;28;20028;-75
2024/01/30 03:59:02;;;;;;;3.45;2.13;;;;;;;0.47;46.47;96879.03;5061989;28;20453;-74
2024/01/30 04:01:28;;;;;;;3.72;2.40;;;;;;;0.52;46.11;96878.06;5032872;28;20152;-74
2024/01/30 04:03:53;;;;;;;3.60;2.10;;;;;;;0.42;46.71;96879.19;5030937;28;20079;-75
2024/01/30 04:06:18;;;;;;;4.28;2.15;;;;;;;0.42;46.67;96881.13;5045896;28;20410;-74
2024/01/30 04:08:44;;;;;;;4.25;2.38;;;;;;;0.42;46.57;96876.50;5045717;28;20040;-74
2024/01/30 04:11:09;;;;;;;3.65;2.72;;;;;;;0.45;46.48;96869.63;5047351;28;20033;-73
2024/01/30 04:13:35;;;;;;;4.18;2.15;;;;;;;0.42;46.61;96871.09;5053816;28;20177;-74
2024/01/30 04:16:01;;;;;;;3.65;2.38;;;;;;;0.35;46.35;96868.09;5060461;28;20056;-74
2024/01/30 04:18:27;;;;;;;3.45;2.17;;;;;;;0.29;46.55;96871.28;5053948;28;20029;-74
2024/01/30 04:20:52;;;;;;;4.68;2.33;;;;;;;0.30;46.63;96868.25;5055484;28;20031;-74
2024/01/30 04:23:18;;;;;;;3.95;2.45;;;;;;;0.23;46.88;96874.19;5052905;28;20079;-74
2024/01/30 04:25:43;;;;;;;4.72;2.40;;;;;;;0.21;47.04;96875.59;5045951;28;20029;-75
2024/01/30 04:28:08;;;;;;;3.38;2.30;;;;;;;0.15;47.24;96882.31;5059567;28;20143;-73
2024/01/30 04:30:34;;;;;;;3.60;2.28;;;;;;;0.16;47.40;96884.69;5044864;28;20032;-73
2024/01/30 04:32:59;;;;;;;4.82;2.42;;;;;;;0.13;47.22;96884.53;5053176;28;20427;-74
2024/01/30 04:35:25;;;;;;;5.45;2.95;;;;;;;0.22;47.26;96882.59;5065845;28;20032;-75
2024/01/30 04:37:52;;;;;;;4.35;2.80;;;;;;;0.22;47.03;96893.41;5058194;28;20142;-74
2024/01/30 04:40:18;;;;;;;3.42;2.60;;;;;;;0.17;47.22;96894.41;5058775;28;20036;-74
2024/01/30 04:42:43;;;;;;;4.78;3.08;;;;;;;0.09;46.76;96883.59;5064311;28;20401;-73
2024/01/30 04:45:09;;;;;;;5.60;3.40;;;;;;;0.11;47.04;96890.25;5046641;28;20017;-75
2024/01/30 04:47:34;;;;;;;5.22;2.88;;;;;;;0.12;47.10;96894.56;5045608;28;20047;-76
2024/01/30 04:50:00;;;;;;;5.28;3.08;;;;;;;0.12;47.29;96901.91;5034197;28;20464;-75
2024/01/30 04:52:26;;;;;;;4.65;3.08;;;;;;;0.13;47.33;96912.38;5047995;28;20060;-74
2024/01/30 04:54:51;;;;;;;5.45;3.30;;;;;;;0.05;47.58;96904.28;5057073;28;20028;-74
2024/01/30 04:57:17;;;;;;;6.53;3.20;;;;;;;0.04;47.61;96910.81;5047644;28;20028;-75
2024/01/30 04:59:42;;;;;;;4.72;2.85;;;;;;;0.07;47.82;96921.78;5057042;28;20039;-75
2024/01/30 05:02:08;;;;;;;5.40;4.05;;;;;;;0.07;48.08;96921.00;5055929;28;20036;-75
2024/01/30 05:04:33;;;;;;;6.78;3.28;;;;;;;0.13;47.83;96922.41;5065559;28;20036;-76
2024/01/30 05:06:58;;;;;;;6.18;3.55;;;;;;;-0.01;47.99;96901.72;5047019;28;20533;-74
2024/01/30 05:09:24;;;;;;;6.38;3.75;;;;;;;-0.03;48.23;96920.19;5043982;28;20475;-74
2024/01/30 05:11:49;;;;;;;9.75;4.10;;;;;;;-0.14;48.49;96912.75;5046463;28;20078;-75
2024/01/30 05:14:15;;;;;;;7.15;3.60;;;;;;;-0.09;48.58;96928.81;5063001;28;20069;-74
2024/01/30 05:16:41;;;;;;;6.15;3.78;;;;;;;-0.08;48.48;96933.88;5055296;28;20031;-73
2024/01/30 05:19:06;;;;;;;6.10;3.05;;;;;;;-0.15;48.68;96930.06;5065367;28;20029;-74
2024/01/30 05:21:31;;;;;;;6.40;4.03;;;;;;;-0.14;48.66;96937.84;5049004;28;20021;-74
2024/01/30 05:23:57;;;;;;;7.10;3.85;;;;;;;-0.13;48.54;96920.53;5044700;28;20406;-73
2024/01/30 05:26:22;;;;;;;6.82;3.50;;;;;;;-0.15;48.53;96927.38;5060781;28;20038;-74
2024/01/30 05:28:48;;;;;;;7.13;4.10;;;;;;;-0.13;48.22;96934.03;5061270;28;20480;-74
2024/01/30 05:31:14;;;;;;;7.07;4.00;;;;;;;-0.22;48.47;96932.47;5055971;28;20605;-74
2024/01/30 05:33:40;;;;;;;7.75;4.65;;;;;;;-0.19;48.43;96934.53;5046949;28;20017;-74
2024/01/30 05:36:05;;;;;;;17.25;4.60;;;;;;;-0.20;48.50;96931.03;5057741;28;20039;-74
2024/01/30 05:38:31;;;;;;;7.75;4.22;;;;;;;-0.28;48.56;96921.81;5042287;28;20033;-73
2024/01/30 05:41:00;;;;;;;8.27;4.35;;;;;;;-0.25;48.62;96931.19;5065050;28;20052;-74
2024/01/30 05:43:25;;;;;;;7.57;3.70;;;;;;;-0.29;48.55;96922.13;5056567;28;20021;-75
2024/01/30 05:45:51;;;;;;;6.43;3.63;;;;;;;-0.21;48.42;96928.66;5047307;28;20031;-75
2024/01/30 05:48:17;;;;;;;6.43;4.07;;;;;;;-0.24;48.37;96930.06;5065810;28;20107;-74
2024/01/30 05:50:43;;;;;;;7.18;4.22;;;;;;;-0.34;48.68;96928.50;5052052;28;20059;-75
2024/01/30 05:53:08;;;;;;;10.77;4.55;;;;;;;-0.30;48.67;96926.72;5068396;28;20186;-75
2024/01/30 05:55:33;;;;;;;6.05;3.97;;;;;;;-0.36;48.46;96919.91;5042338;28;20101;-73
2024/01/30 05:57:59;;;;;;;7.18;4.15;;;;;;;-0.33;48.34;96915.78;5047544;28;20051;-74
2024/01/30 06:00:24;;;;;;;7.85;3.92;;;;;;;-0.32;48.17;96923.56;5051768;28;20391;-74
2024/01/30 06:02:50;;;;;;;6.10;3.72;;;;;;;-0.33;48.37;96938.19;5069589;28;20099;-75
2024/01/30 06:05:15;;;;;;;7.47;4.03;;;;;;;-0.35;48.49;96929.59;5069509;28;20025;-75
2024/01/30 06:07:40;;;;;;;7.75;3.88;;;;;;;-0.37;48.48;96936.44;5070146;28;20506;-77
2024/01/30 06:10:06;;;;;;;10.15;4.63;;;;;;;-0.39;48.59;96928.66;5067197;28;20465;-74
2024/01/30 06:12:32;;;;;;;9.45;4.25;;;;;;;-0.43;48.68;96935.00;5067162;28;20572;-73
2024/01/30 06:14:58;;;;;;;8.70;4.55;;;;;;;-0.40;48.43;96937.88;5048550;28;20052;-74
2024/01/30 06:17:23;;;;;;;7.35;3.72;;;;;;;-0.36;48.43;96935.31;5050045;28;20025;-73
2024/01/30 06:19:49;;;;;;;8.88;3.88;;;;;;;-0.41;48.07;96936.25;5048687;28;20031;-74
2024/01/30 06:22:15;;;;;;;7.40;3.53;;;;;;;-0.33;48.05;96932.78;5031591;28;20120;-74
2024/01/30 06:24:41;;;;;;;9.43;3.80;;;;;;;-0.35;47.92;96929.59;5048428;28;20032;-75
2024/01/30 06:27:06;;;;;;;6.32;3.35;;;;;;;-0.26;47.75;96932.31;5048618;28;20037;-74
2024/01/30 06:29:31;;;;;;;6.45;3.63;;;;;;;-0.27;47.94;96928.81;5049813;28;20100;-73
2024/01/30 06:31:57;;;;;;;6.65;3.10;;;;;;;-0.28;47.81;96927.22;5046851;28;20034;-75
2024/01/30 06:34:22;;;;;;;5.47;3.20;;;;;;;-0.16;47.76;96940.09;5048402;28;20025;-74
2024/01/30 06:36:47;;;;;;;5.57;2.92;;;;;;;-0.10;47.79;96932.63;5046626;28;20024;-74
2024/01/30 06:39:13;;;;;;;6.32;3.10;;;;;;;-0.11;47.57;96933.75;5047807;28;20048;-74
2024/01/30 06:41:38;;;;;;;5.90;3.58;;;;;;;-0.06;47.25;96934.38;5048968;28;20025;-74
2024/01/30 06:44:06;;;;;;;8.90;3.85;;;;;;;-0.07;47.37;96935.47;5047232;28;20025;-74
2024/01/30 06:46:32;;;;;;;6.57;4.63;;;;;;;0.10;46.89;96931.94;5048059;28;20091;-72
2024/01/30 06:48:57;;;;;;;8.07;4.00;;;;;;;0.09;46.94;96934.97;5046585;28;20045;-73
2024/01/30 06:51:23;;;;;;;10.10;5.32;;;;;;;0.08;46.81;96942.31;5069386;28;20044;-74
2024/01/30 06:53:48;;;;;;;9.65;4.13;;;;;;;0.07;46.86;96929.91;5067528;28;20047;-74
2024/01/30 06:56:14;;;;;;;10.18;4.60;;;;;;;0.15;46.62;96931.78;5067075;28;20494;-72
2024/01/30 06:58:39;;;;;;;8.70;4.38;;;;;;;0.20;46.43;96936.22;5068076;28;20035;-74
2024/01/30 07:01:05;;;;;;;10.95;5.35;;;;;;;0.19;46.43;96942.75;5067100;28;20029;-73
2024/01/30 07:03:30;;;;;;;9.27;5.03;;;;;;;0.29;46.27;96947.03;5067647;28;20115;-75
2024/01/30 07:05:55;;;;;;;9.93;4.68;;;;;;;0.34;45.99;96930.63;5067737;28;20016;-73
2024/01/30 07:08:22;;;;;;;10.07;4.18;;;;;;;0.46;45.94;96945.09;5069088;28;20033;-74
2024/01/30 07:10:47;;;;;;;6.90;3.55;;;;;;;0.69;45.25;96945.66;5067146;28;20127;-73
2024/01/30 07:13:13;;;;;;;4.95;3.45;;;;;;;0.74;45.24;96940.03;5069088;28;20240;-74
2024/01/30 07:15:38;;;;;;;9.95;4.18;;;;;;;0.79;45.33;96937.16;5066100;28;20570;-74
2024/01/30 07:18:05;;;;;;;7.05;4.00;;;;;;;0.83;45.25;96929.19;5050665;28;20119;-73
2024/01/30 07:20:31;;;;;;;7.90;4.47;;;;;;;0.94;44.48;96935.84;5068278;28;20082;-74
2024/01/30 07:22:58;;;;;;;8.02;3.78;;;;;;;1.13;44.16;96938.13;5067915;28;20426;-75
2024/01/30 07:25:26;;;;;;;7.55;3.65;;;;;;;1.27;43.75;96946.03;5067572;28;20108;-75
2024/01/30 07:27:55;;;;;;;6.32;3.90;;;;;;;1.41;43.55;96940.34;5049643;28;20029;-73
2024/01/30 07:30:21;;;;;;;6.78;3.65;;;;;;;1.44;43.18;96937.78;5058867;28;20033;-76
2024/01/30 07:32:47;;;;;;;8.13;3.70;;;;;;;1.55;42.69;96936.28;5048773;28;20037;-74
2024/01/30 07:35:13;;;;;;;9.30;4.85;;;;;;;1.66;42.82;96939.38;5063305;28;20364;-80
2024/01/30 07:37:38;;;;;;;8.50;5.05;;;;;;;1.74;42.80;96940.44;5056754;28;20037;-74
2024/01/30 07:40:05;;;;;;;6.70;4.18;;;;;;;1.89;42.46;96942.53;5061637;28;20028;-75
2024/01/30 07:42:30;;;;;;;7.82;3.70;;;;;;;1.97;41.55;96933.56;5057028;28;20025;-74
2024/01/30 07:44:55;;;;;;;4.40;3.20;;;;;;;2.11;41.46;96936.75;5047825;28;20037;-75
2024/01/30 07:47:21;;;;;;;5.35;3.78;;;;;;;2.22;41.08;96928.22;5053796;28;20027;-73
2024/01/30 07:49:46;;;;;;;7.40;3.15;;;;;;;2.46;40.60;96930.19;5046891;28;20449;-74
2024/01/30 07:52:12;;;;;;;7.80;4.55;;;;;;;2.54;40.16;96929.34;5063134;28;20434;-75
2024/01/30 07:54:38;;;;;;;15.32;6.07;;;;;;;2.72;40.22;96924.50;5064930;28;20064;-74
2024/01/30 07:57:05;;;;;;;7.70;3.65;;;;;;;2.95;39.61;96922.13;5043861;28;20028;-74
2024/01/30 07:59:30;;;;;;;12.52;4.88;;;;;;;3.18;39.08;96934.94;5057426;28;20140;-74
2024/01/30 08:01:55;;;;;;;6.95;3.92;;;;;;;3.35;38.86;96931.19;5047919;28;20164;-74
2024/01/30 08:04:21;;;;;;;10.57;5.68;;;;;;;3.57;38.36;96921.75;5054785;28;20040;-73
2024/01/30 08:06:46;;;;;;;8.90;4.57;;;;;;;4.02;37.71;96937.06;5033240;28;20028;-74
2024/01/30 08:09:12;;;;;;;10.43;5.20;;;;;;;4.41;36.76;96929.94;5049529;28;20031;-74
2024/01/30 08:11:37;;;;;;;7.60;4.72;;;;;;;4.84;36.64;96924.81;5065555;28;20033;-75
2024/01/30 08:14:03;;;;;;;7.30;4.57;;;;;;;5.41;35.49;96924.25;5066170;28;20029;-74
2024/01/30 08:16:28;;;;;;;5.97;4.00;;;;;;;6.28;34.07;96923.00;5065492;28;20100;-74
2024/01/30 08:18:56;;;;;;;7.63;4.18;;;;;;;7.48;32.32;96930.13;5065529;28;20086;-74
2024/01/30 08:21:21;;;;;;;7.72;5.03;;;;;;;9.02;29.93;96925.34;5049847;28;20028;-74
2024/01/30 08:23:47;;;;;;;6.90;3.78;;;;;;;10.40;27.85;96930.16;5064950;28;20025;-75
2024/01/30 08:26:12;;;;;;;8.27;4.68;;;;;;;11.41;26.29;96924.44;5049299;28;20031;-74
2024/01/30 08:28:37;;;;;;;7.72;5.38;;;;;;;12.27;24.91;96927.03;5066058;28;20035;-75
2024/01/30 08:31:03;;;;;;;5.10;3.70;;;;;;;13.10;23.69;96941.19;5065645;28;20032;-73
2024/01/30 08:33:28;;;;;;;7.43;5.22;;;;;;;12.84;24.22;96934.25;5066404;28;20036;-73
2024/01/30 08:35:54;;;;;;;8.13;5.50;;;;;;;13.06;23.62;96932.94;5065446;28;20360;-74
2024/01/30 08:38:19;;;;;;;6.40;3.80;;;;;;;11.91;24.63;96935.41;5065441;28;20020;-74
2024/01/30 08:40:45;;;;;;;7.50;4.57;;;;;;;12.72;23.89;96949.28;5065972;28;20443;-74
2024/01/30 08:43:10;;;;;;;6.32;4.50;;;;;;;14.18;22.44;96939.09;5067004;28;20020;-74
2024/01/30 08:45:35;;;;;;;6.53;3.70;;;;;;;15.14;22.03;96940.66;5065715;28;20173;-75
2024/01/30 08:48:01;;;;;;;6.18;4.10;;;;;;;15.58;20.98;96939.53;5066828;28;20040;-74
2024/01/30 08:50:26;;;;;;;5.38;4.05;;;;;;;15.09;21.40;96952.19;5064278;28;20036;-74
2024/01/30 08:52:52;;;;;;;6.72;3.60;;;;;;;13.59;22.49;96945.59;5067015;28;20033;-74
2024/01/30 08:55:18;;;;;;;6.32;3.38;;;;;;;12.69;23.25;96931.56;5064914;28;20466;-74
2024/01/30 08:57:43;;;;;;;7.10;3.97;;;;;;;11.80;24.50;96956.66;5066685;28;20047;-74
2024/01/30 09:00:10;;;;;;;8.25;4.45;;;;;;;11.43;25.21;96957.88;5066635;28;20488;-74
2024/01/30 09:02:35;;;;;;;9.02;5.43;;;;;;;11.68;24.89;96946.03;5065963;28;20478;-74
2024/01/30 09:05:00;;;;;;;11.05;5.10;;;;;;;10.71;25.75;96947.16;5066688;28;20100;-74
2024/01/30 09:07:26;;;;;;;8.57;4.65;;;;;;;10.30;26.58;96959.19;5065469;28;20036;-74
2024/01/30 09:09:51;;;;;;;6.47;4.72;;;;;;;9.62;27.67;96957.97;5067056;28;20103;-73
2024/01/30 09:12:17;;;;;;;10.52;5.05;;;;;;;9.19;28.16;96962.34;5047437;28;20021;-74
2024/01/30 09:14:42;;;;;;;7.03;4.63;;;;;;;8.81;28.54;96947.88;5065373;28;20475;-73
2024/01/30 09:17:08;;;;;;;4.60;3.33;;;;;;;8.40;29.46;96968.97;5064814;28;20126;-75
2024/01/30 09:19:33;;;;;;;7.20;3.80;;;;;;;8.48;29.70;96956.91;5064992;28;20115;-73
2024/01/30 09:21:59;;;;;;;10.02;4.65;;;;;;;8.19;30.03;96948.31;5069458;28;20235;-73
2024/01/30 09:24:25;;;;;;;7.13;4.25;;;;;;;9.22;28.88;96951.38;5068318;28;20039;-74
2024/01/30 09:26:51;;;;;;;4.90;3.47;;;;;;;10.59;27.41;96943.56;5053140;28;20067;-74
2024/01/30 09:29:16;;;;;;;7.20;3.92;;;;;;;12.01;25.70;96946.81;5069203;28;20052;-73
2024/01/30 09:31:45;;;;;;;5.00;3.70;;;;;;;11.26;25.98;96936.63;5052591;28;20033;-73
2024/01/30 09:34:10;;;;;;;6.03;3.55;;;;;;;12.38;24.67;96941.56;5051757;28;20024;-74
2024/01/30 09:36:36;;;;;;;5.55;3.97;;;;;;;14.05;22.84;96941.59;5070115;28;20442;-73
2024/01/30 09:39:02;;;;;;;6.50;3.50;;;;;;;15.57;21.08;96932.44;5070165;28;20031;-74
2024/01/30 09:41:27;;;;;;;8.13;3.53;;;;;;;16.58;20.09;96940.50;5069169;28;20112;-74
2024/01/30 09:43:54;;;;;;;5.32;3.15;;;;;;;17.60;18.95;96932.25;5069509;28;20020;-75
2024/01/30 09:46:21;;;;;;;4.85;3.00;;;;;;;18.32;18.33;96929.22;5067529;28;20115;-74
2024/01/30 09:48:47;;;;;;;9.35;3.83;;;;;;;19.39;17.22;96933.66;5068690;28;20066;-75
2024/01/30 09:51:14;;;;;;;4.20;3.28;;;;;;;17.70;18.00;96920.09;5067653;28;20024;-74
2024/01/30 09:53:40;;;;;;;4.15;3.10;;;;;;;16.93;18.80;96919.53;5068637;28;20364;-74
2024/01/30 09:56:06;;;;;;;4.40;2.63;;;;;;;15.84;19.44;96912.97;5068477;28;20077;-73
2024/01/30 09:58:31;;;;;;;6.80;3.05;;;;;;;14.84;20.30;96922.84;5069377;28;20024;-73
2024/01/30 10:00:56;;;;;;;6.22;3.45;;;;;;;13.86;21.36;96911.75;5068438;28;20066;-74
2024/01/30 10:03:22;;;;;;;6.82;2.90;;;;;;;13.06;21.75;96918.34;5067311;28;20529;-74
2024/01/30 10:05:55;;;;;;;7.07;2.80;;;;;;;12.32;22.89;96918.34;5068635;28;20391;-74
2024/01/30 10:08:20;;;;;;;4.93;2.95;;;;;;;12.06;23.23;96910.56;5067243;28;20029;-73
2024/01/30 10:10:49;;;;;;;5.35;3.70;;;;;;;11.54;24.21;96918.53;5069730;28;20031;-73
2024/01/30 10:13:15;;;;;;;8.10;4.30;;;;;;;11.31;24.42;96905.94;5068112;28;20028;-74
2024/01/30 10:15:41;;;;;;;5.07;4.03;;;;;;;11.87;24.16;96903.53;5069066;28;20031;-74
2024/01/30 10:18:07;;;;;;;6.05;3.50;;;;;;;14.72;21.42;96908.78;5068484;28;20028;-74
2024/01/30 10:20:33;;;;;;;4.47;3.03;;;;;;;16.44;19.66;96910.25;5050307;28;20498;-74
2024/01/30 10:22:58;;;;;;;4.70;2.88;;;;;;;15.73;20.30;96901.31;5069550;28;20478;-74
2024/01/30 10:25:25;;;;;;;4.20;2.78;;;;;;;17.86;18.17;96911.78;5067191;28;20442;-74
2024/01/30 10:27:55;;;;;;;5.40;3.50;;;;;;;17.33;18.64;96901.97;5051489;28;20502;-73
2024/01/30 10:30:23;;;;;;;4.85;2.90;;;;;;;16.08;19.30;96908.19;5067452;28;20081;-75
2024/01/30 10:32:49;;;;;;;6.28;3.83;;;;;;;16.56;19.38;96909.59;5068878;28;20021;-74
2024/01/30 10:35:15;;;;;;;3.67;2.75;;;;;;;16.88;18.37;96905.38;5067661;28;20044;-74
2024/01/30 10:37:43;;;;;;;4.40;3.15;;;;;;;16.35;19.17;96908.06;5066932;28;20017;-75
2024/01/30 10:40:09;;;;;;;3.47;2.55;;;;;;;18.43;17.61;96909.44;5050769;28;20081;-74
2024/01/30 10:42:36;;;;;;;4.55;2.63;;;;;;;19.41;16.60;96908.88;5066808;28;20024;-75
2024/01/30 10:45:08;;;;;;;4.00;2.90;;;;;;;20.43;15.86;96896.22;5069404;28;20116;-75
2024/01/30 10:47:36;;;;;;;5.38;3.15;;;;;;;21.64;15.03;96895.56;5068696;28;20031;-75
2024/01/30 10:50:03;;;;;;;5.30;3.20;;;;;;;21.30;14.73;96899.34;5067039;28;20021;-74
2024/01/30 10:52:29;;;;;;;5.15;3.17;;;;;;;21.94;14.35;96894.66;5067808;28;20032;-75
2024/01/30 10:54:55;;;;;;;4.47;2.95;;;;;;;23.13;13.66;96893.78;5066632;28;20070;-75
2024/01/30 10:57:23;;;;;;;6.38;3.20;;;;;;;24.01;12.88;96884.28;5067885;28;20024;-75
2024/01/30 10:59:49;;;;;;;5.82;3.35;;;;;;;24.99;12.58;96875.88;5066385;28;20032;-75
2024/01/30 11:02:14;;;;;;;5.60;2.40;;;;;;;25.38;11.90;96885.75;5067553;28;20177;-75
2024/01/30 11:04:44;;;;;;;3.92;2.58;;;;;;;26.00;11.53;96877.41;5068163;28;20343;-75
2024/01/30 11:07:16;;;;;;;3.97;2.60;;;;;;;26.37;11.42;96880.38;5050302;28;20399;-75
2024/01/30 11:09:52;;;;;;;3.55;2.20;;;;;;;26.97;11.18;96878.69;5067559;28;20293;-75
2024/01/30 11:12:22;;;;;;;4.20;2.38;;;;;;;27.59;10.83;96879.97;5066205;28;20120;-75
2024/01/30 11:14:47;;;;;;;4.47;2.42;;;;;;;28.17;10.55;96866.41;5050811;28;20082;-75
2024/01/30 11:17:12;;;;;;;4.00;2.20;;;;;;;28.83;10.00;96859.34;5065869;28;20028;-75
2024/01/30 11:19:38;;;;;;;4.15;2.80;;;;;;;29.70;9.57;96865.25;5050545;28;20028;-75
2024/01/30 11:22:06;;;;;;;4.38;2.95;;;;;;;29.85;9.33;96863.66;5066334;28;20115;-75
2024/01/30 11:24:38;;;;;;;3.65;2.50;;;;;;;30.55;8.72;96870.06;5068281;28;20031;-75
2024/01/30 11:27:08;;;;;;;3.67;2.45;;;;;;;31.24;8.37;96862.63;5067273;28;20020;-76
2024/01/30 11:29:34;;;;;;;3.95;2.50;;;;;;;31.61;8.13;96857.16;5065906;28;20031;-75